createdAt,value
2019-03-23T00:00:57.178Z,62.47
2019-03-23T00:03:28.206Z,62.50
2019-03-23T00:05:59.309Z,59.77
2019-03-23T00:08:30.502Z,55.33
2019-03-23T00:11:01.700Z,55.60
2019-03-23T00:13:32.806Z,55.60
2019-03-23T00:16:04.119Z,68.03
2019-03-23T00:18:35.156Z,57.57
2019-03-23T00:21:06.500Z,59.93
2019-03-23T00:23:37.591Z,61.03
2019-03-23T00:26:08.599Z,58.33
2019-03-23T00:28:39.782Z,60.60
2019-03-23T00:31:10.878Z,62.67
2019-03-23T00:33:41.942Z,60.17
2019-03-23T00:36:13.266Z,60.87
2019-03-23T00:38:45.259Z,57.50
2019-03-23T00:41:16.555Z,61.53
2019-03-23T00:43:47.539Z,57.80
2019-03-23T00:46:18.529Z,54.83
2019-03-23T00:48:49.567Z,58.93
2019-03-23T00:51:20.728Z,55.87
2019-03-23T00:53:51.933Z,59.70
2019-03-23T00:56:23.169Z,55.93
2019-03-23T00:58:54.319Z,54.60
2019-03-23T01:01:25.557Z,59.17
2019-03-23T01:03:57.809Z,54.03
2019-03-23T01:06:29.106Z,54.53
2019-03-23T01:09:00.278Z,56.87
2019-03-23T01:11:31.386Z,60.37
2019-03-23T01:14:02.495Z,57.97
2019-03-23T01:16:34.019Z,61.27
2019-03-23T01:19:05.396Z,64.50
2019-03-23T01:21:36.593Z,55.70
2019-03-23T01:24:07.851Z,62.13
2019-03-23T01:26:38.943Z,64.90
2019-03-23T01:29:10.193Z,57.20
2019-03-23T01:31:41.265Z,64.13
2019-03-23T01:34:12.350Z,53.23
2019-03-23T01:36:43.490Z,53.93
2019-03-23T01:39:14.508Z,56.43
2019-03-23T01:41:45.558Z,57.53
2019-03-23T01:44:16.680Z,51.47
2019-03-23T01:46:47.786Z,50.87
2019-03-23T01:49:18.774Z,51.93
2019-03-23T01:51:49.828Z,55.40
2019-03-23T01:54:21.094Z,55.83
2019-03-23T01:56:52.174Z,51.43
2019-03-23T01:59:23.538Z,55.80
2019-03-23T02:01:54.758Z,55.27
2019-03-23T02:04:26.105Z,50.93
2019-03-23T02:06:57.473Z,50.87
2019-03-23T02:09:28.538Z,50.20
2019-03-23T02:12:00.009Z,59.40
2019-03-23T02:14:31.161Z,57.33
2019-03-23T02:17:02.333Z,54.77
2019-03-23T02:19:33.833Z,57.77
2019-03-23T02:22:05.015Z,53.10
2019-03-23T02:24:36.251Z,61.20
2019-03-23T02:27:07.317Z,65.00
2019-03-23T02:29:38.383Z,63.77
2019-03-23T02:32:09.520Z,64.87
2019-03-23T02:34:40.575Z,68.33
2019-03-23T02:37:11.614Z,65.93
2019-03-23T02:39:42.680Z,65.17
2019-03-23T02:42:13.660Z,73.90
2019-03-23T02:44:44.803Z,68.77
2019-03-23T02:47:15.962Z,64.43
2019-03-23T02:49:47.012Z,64.43
2019-03-23T02:52:18.035Z,71.17
2019-03-23T02:54:49.042Z,67.27
2019-03-23T02:57:20.329Z,60.33
2019-03-23T02:59:51.548Z,61.70
2019-03-23T03:02:22.797Z,69.67
2019-03-23T03:04:53.901Z,66.57
2019-03-23T03:07:25.946Z,60.20
2019-03-23T03:09:56.931Z,70.00
2019-03-23T03:12:27.913Z,65.33
2019-03-23T03:14:58.909Z,72.10
2019-03-23T03:17:30.214Z,65.43
2019-03-23T03:20:01.277Z,75.10
2019-03-23T03:22:32.412Z,74.97
2019-03-23T03:25:03.756Z,70.37
2019-03-23T03:27:35.211Z,65.57
2019-03-23T03:30:11.743Z,66.50
2019-03-23T03:32:42.966Z,74.87
2019-03-23T03:35:13.976Z,71.97
2019-03-23T03:37:55.974Z,69.47
2019-03-23T03:40:17.890Z,67.93
2019-03-23T03:42:48.856Z,66.83
2019-03-23T03:45:25.364Z,68.13
2019-03-23T03:47:56.473Z,67.87
2019-03-23T03:50:27.702Z,62.53
2019-03-23T03:52:58.838Z,65.27
2019-03-23T03:55:30.139Z,66.07
2019-03-23T03:58:01.354Z,66.67
2019-03-23T04:00:32.562Z,60.90
2019-03-23T04:03:03.750Z,60.93
2019-03-23T04:05:34.808Z,65.03
2019-03-23T04:08:11.793Z,63.43
2019-03-23T04:10:38.812Z,59.23
2019-03-23T04:13:10.019Z,65.37
2019-03-23T04:15:41.417Z,66.90
2019-03-23T04:18:12.578Z,58.57
2019-03-23T04:20:43.824Z,62.40
2019-03-23T04:23:14.817Z,76.97
2019-03-23T04:25:45.955Z,79.93
2019-03-23T04:28:17.019Z,78.73
2019-03-23T04:30:48.138Z,72.97
2019-03-23T04:33:19.303Z,77.73
2019-03-23T04:35:50.384Z,69.20
2019-03-23T04:38:23.308Z,76.23
2019-03-23T04:40:54.659Z,82.57
2019-03-23T04:43:25.908Z,74.07
2019-03-23T04:45:57.280Z,91.77
2019-03-23T04:48:28.358Z,85.40
2019-03-23T04:50:59.442Z,91.43
2019-03-23T04:53:30.474Z,92.07
2019-03-23T04:56:01.464Z,86.10
2019-03-23T04:58:33.203Z,92.73
2019-03-23T05:01:04.525Z,84.67
2019-03-23T05:03:35.840Z,95.43
2019-03-23T05:06:06.937Z,99.13
2019-03-23T05:08:37.990Z,77.77
2019-03-23T05:11:09.275Z,82.87
2019-03-23T05:13:40.454Z,78.10
2019-03-23T05:16:12.393Z,72.00
2019-03-23T05:18:43.569Z,69.77
2019-03-23T05:21:14.758Z,73.03
2019-03-23T05:23:45.952Z,67.13
2019-03-23T05:26:17.169Z,67.17
2019-03-23T05:28:48.489Z,66.40
2019-03-23T05:31:19.668Z,64.83
2019-03-23T05:33:50.861Z,88.63
2019-03-23T05:36:21.993Z,73.27
2019-03-23T05:38:54.135Z,62.97
2019-03-23T05:41:25.443Z,59.47
2019-03-23T05:43:56.729Z,67.47
2019-03-23T05:46:28.171Z,66.93
2019-03-23T05:48:59.649Z,84.37
2019-03-23T05:51:30.715Z,94.80
2019-03-23T05:54:01.830Z,74.10
2019-03-23T05:56:33.130Z,49.33
2019-03-23T05:59:04.280Z,56.23
2019-03-23T06:01:35.398Z,43.10
2019-03-23T06:04:06.640Z,49.37
2019-03-23T06:06:37.852Z,46.03
2019-03-23T06:09:09.096Z,40.50
2019-03-23T06:11:40.114Z,42.47
2019-03-23T06:14:11.378Z,46.73
2019-03-23T06:16:43.074Z,36.93
2019-03-23T06:19:14.335Z,38.13
2019-03-23T06:21:45.277Z,34.80
2019-03-23T06:24:16.355Z,30.60
2019-03-23T06:26:47.348Z,32.70
2019-03-23T06:29:18.402Z,30.97
2019-03-23T06:31:49.508Z,34.33
2019-03-23T06:34:20.940Z,34.40
2019-03-23T06:36:52.366Z,31.73
2019-03-23T06:39:23.702Z,35.00
2019-03-23T06:41:54.878Z,31.27
2019-03-23T06:44:26.234Z,38.60
2019-03-23T06:46:57.494Z,33.83
2019-03-23T06:49:28.631Z,38.07
2019-03-23T06:51:59.877Z,37.13
2019-03-23T06:54:31.391Z,38.07
2019-03-23T06:57:02.679Z,37.80
2019-03-23T06:59:33.983Z,36.70
2019-03-23T07:02:05.216Z,40.47
2019-03-23T07:04:36.388Z,47.23
2019-03-23T07:07:07.813Z,35.57
2019-03-23T07:09:38.877Z,37.63
2019-03-23T07:12:09.912Z,36.67
2019-03-23T07:14:41.258Z,34.47
2019-03-23T07:17:12.404Z,32.43
2019-03-23T07:19:43.636Z,28.97
2019-03-23T07:22:14.834Z,30.27
2019-03-23T07:24:46.082Z,29.90
2019-03-23T07:27:18.459Z,31.93
2019-03-23T07:29:49.998Z,28.70
2019-03-23T07:32:21.244Z,31.63
2019-03-23T07:34:52.334Z,28.30
2019-03-23T07:37:23.654Z,27.40
2019-03-23T07:39:55.166Z,28.20
2019-03-23T07:42:26.355Z,26.50
2019-03-23T07:44:57.454Z,26.13
2019-03-23T07:47:28.632Z,23.50
2019-03-23T07:49:59.916Z,26.47
2019-03-23T07:52:30.936Z,28.37
2019-03-23T07:55:10.553Z,25.67
2019-03-23T07:57:41.719Z,23.03
2019-03-23T08:00:17.838Z,28.37
2019-03-23T08:02:49.015Z,21.70
2019-03-23T08:05:21.956Z,23.53
2019-03-23T08:07:53.264Z,20.67
2019-03-23T08:10:29.323Z,24.67
2019-03-23T08:13:00.439Z,24.40
2019-03-23T08:15:31.663Z,21.10
2019-03-23T08:18:02.701Z,26.20
2019-03-23T08:20:33.741Z,20.10
2019-03-23T08:23:05.007Z,20.23
2019-03-23T08:25:36.209Z,20.60
2019-03-23T08:28:07.379Z,34.83
2019-03-23T08:30:38.501Z,25.47
2019-03-23T08:33:09.551Z,22.03
2019-03-23T08:35:40.676Z,22.13
2019-03-23T08:38:11.689Z,21.50
2019-03-23T08:40:42.797Z,19.67
2019-03-23T08:43:13.886Z,14.13
2019-03-23T08:45:45.232Z,13.67
2019-03-23T08:48:16.137Z,15.43
2019-03-23T08:50:47.327Z,18.80
2019-03-23T08:53:18.463Z,18.23
2019-03-23T08:55:49.733Z,15.17
2019-03-23T08:58:29.224Z,15.43
2019-03-23T09:01:01.856Z,9.90
2019-03-23T09:03:33.186Z,11.60
2019-03-23T09:06:04.202Z,10.93
2019-03-23T09:08:35.374Z,11.47
2019-03-23T09:11:06.816Z,10.97
2019-03-23T09:13:40.879Z,11.20
2019-03-23T09:16:10.712Z,8.07
2019-03-23T09:18:41.722Z,13.30
2019-03-23T09:21:13.010Z,9.13
2019-03-23T09:23:44.201Z,13.17
2019-03-23T09:26:15.239Z,9.27
2019-03-23T09:28:46.486Z,9.70
2019-03-23T09:31:18.216Z,9.63
2019-03-23T09:33:49.458Z,7.97
2019-03-23T09:36:22.806Z,9.07
2019-03-23T09:38:55.095Z,11.07
2019-03-23T09:41:26.285Z,6.47
2019-03-23T09:43:57.285Z,9.40
2019-03-23T09:46:29.351Z,9.57
2019-03-23T09:49:00.679Z,12.20
2019-03-23T09:51:31.695Z,10.97
2019-03-23T09:54:02.935Z,11.93
2019-03-23T09:56:34.139Z,8.57
2019-03-23T09:59:05.119Z,11.83
2019-03-23T10:01:36.263Z,6.97
2019-03-23T10:04:08.500Z,7.57
2019-03-23T10:06:40.005Z,9.80
2019-03-23T10:09:11.323Z,17.07
2019-03-23T10:11:42.582Z,12.03
2019-03-23T10:14:13.567Z,12.90
2019-03-23T10:16:44.734Z,11.23
2019-03-23T10:19:15.800Z,11.10
2019-03-23T10:21:46.953Z,8.17
2019-03-23T10:24:18.233Z,10.33
2019-03-23T10:26:49.441Z,14.50
2019-03-23T10:29:20.621Z,10.63
2019-03-23T10:31:51.764Z,9.13
2019-03-23T10:34:22.856Z,19.63
2019-03-23T10:36:53.894Z,13.87
2019-03-23T10:39:25.066Z,11.40
2019-03-23T10:41:56.230Z,8.13
2019-03-23T10:44:27.444Z,10.10
2019-03-23T10:46:58.585Z,9.63
2019-03-23T10:49:29.894Z,11.00
2019-03-23T10:52:01.219Z,8.90
2019-03-23T10:54:35.502Z,12.27
2019-03-23T10:57:06.769Z,9.67
2019-03-23T10:59:37.928Z,9.60
2019-03-23T11:02:09.116Z,11.03
2019-03-23T11:04:40.292Z,15.47
2019-03-23T11:07:11.484Z,12.20
2019-03-23T11:09:42.758Z,10.10
2019-03-23T11:12:13.869Z,9.07
2019-03-23T11:14:44.926Z,10.40
2019-03-23T11:17:16.373Z,10.27
2019-03-23T11:19:47.409Z,10.70
2019-03-23T11:22:18.651Z,11.83
2019-03-23T11:24:49.782Z,12.93
2019-03-23T11:27:20.874Z,10.20
2019-03-23T11:29:53.171Z,9.57
2019-03-23T11:32:24.199Z,9.87
2019-03-23T11:34:55.396Z,17.07
2019-03-23T11:37:26.657Z,16.03
2019-03-23T11:39:57.687Z,10.67
2019-03-23T11:42:28.831Z,11.57
2019-03-23T11:45:01.289Z,13.93
2019-03-23T11:47:32.453Z,8.20
2019-03-23T11:50:03.777Z,13.17
2019-03-23T11:52:35.123Z,15.17
2019-03-23T11:55:06.784Z,14.27
2019-03-23T11:57:37.953Z,13.80
2019-03-23T12:00:09.951Z,11.30
2019-03-23T12:02:41.218Z,11.33
2019-03-23T12:05:13.303Z,13.23
2019-03-23T12:07:44.422Z,18.77
2019-03-23T12:10:15.570Z,11.97
2019-03-23T12:12:46.888Z,14.10
2019-03-23T12:15:17.922Z,15.23
2019-03-23T12:17:49.315Z,15.40
2019-03-23T12:23:44.382Z,13.13
2019-03-23T12:26:33.106Z,14.20
2019-03-23T12:29:04.422Z,13.97
2019-03-23T12:31:35.680Z,14.40
2019-03-23T12:34:06.695Z,13.93
2019-03-23T12:36:37.822Z,11.27
2019-03-23T12:39:09.151Z,13.80
2019-03-23T12:41:40.287Z,13.00
2019-03-23T12:44:11.492Z,14.03
2019-03-23T12:46:48.197Z,10.27
2019-03-23T12:49:15.103Z,12.97
2019-03-23T12:51:46.229Z,14.33
2019-03-23T12:54:17.343Z,14.45
2019-03-23T12:56:48.409Z,11.00
2019-03-23T12:59:19.429Z,9.03
2019-03-23T13:01:50.531Z,9.93
2019-03-23T13:04:21.547Z,10.53
2019-03-23T13:06:54.051Z,9.85
2019-03-23T13:09:25.093Z,12.18
2019-03-23T13:11:56.100Z,12.80
2019-03-23T13:14:27.377Z,11.18
2019-03-23T13:16:58.416Z,11.20
2019-03-23T13:19:29.657Z,12.25
2019-03-23T13:22:00.829Z,9.03
2019-03-23T13:24:32.041Z,8.63
2019-03-23T13:27:04.189Z,12.00
2019-03-23T13:29:35.688Z,9.40
2019-03-23T13:32:06.914Z,9.85
2019-03-23T13:34:37.950Z,9.30
2019-03-23T13:37:09.120Z,12.95
2019-03-23T13:39:40.171Z,12.82
2019-03-23T13:42:11.270Z,12.18
2019-03-23T13:44:42.276Z,10.23
2019-03-23T13:47:13.398Z,10.05
2019-03-23T13:49:44.667Z,11.80
2019-03-23T13:52:15.897Z,11.60
2019-03-23T13:54:47.006Z,8.20
2019-03-23T13:57:18.004Z,10.48
2019-03-23T13:59:49.060Z,10.32
2019-03-23T14:02:20.132Z,9.90
2019-03-23T14:04:51.304Z,10.80
2019-03-23T14:07:22.683Z,12.75
2019-03-23T14:09:54.151Z,11.40
2019-03-23T14:12:25.909Z,13.28
2019-03-23T14:14:57.322Z,12.80
2019-03-23T14:17:28.439Z,11.70
2019-03-23T14:19:59.538Z,11.20
2019-03-23T14:22:30.885Z,11.80
2019-03-23T14:25:02.093Z,16.43
2019-03-23T14:27:33.230Z,14.23
2019-03-23T14:30:04.597Z,13.30
2019-03-23T14:32:35.607Z,11.33
2019-03-23T14:35:07.193Z,10.83
2019-03-23T14:37:39.855Z,11.10
2019-03-23T14:40:11.157Z,13.40
2019-03-23T14:42:42.484Z,13.10
2019-03-23T14:45:13.831Z,13.53
2019-03-23T14:47:44.798Z,12.63
2019-03-23T14:50:16.045Z,11.50
2019-03-23T14:52:47.840Z,12.27
2019-03-23T14:55:20.347Z,12.37
2019-03-23T14:57:51.975Z,13.63
2019-03-23T15:00:32.012Z,12.07
2019-03-23T15:03:03.437Z,12.93
2019-03-23T15:05:35.708Z,13.93
2019-03-23T15:08:06.925Z,13.03
2019-03-23T15:10:37.939Z,11.93
2019-03-23T15:13:09.016Z,16.90
2019-03-23T15:15:40.230Z,10.87
2019-03-23T15:18:11.363Z,15.60
2019-03-23T15:20:42.732Z,12.57
2019-03-23T15:23:13.901Z,11.97
2019-03-23T15:25:45.108Z,8.90
2019-03-23T15:28:16.419Z,11.50
2019-03-23T15:30:47.497Z,10.40
2019-03-23T15:33:18.708Z,11.17
2019-03-23T15:35:49.871Z,11.40
2019-03-23T15:38:21.186Z,10.93
2019-03-23T15:40:52.322Z,11.03
2019-03-23T15:43:23.535Z,10.47
2019-03-23T15:45:54.904Z,9.03
2019-03-23T15:48:26.161Z,13.63
2019-03-23T15:50:57.167Z,9.67
2019-03-23T15:53:28.345Z,10.43
2019-03-23T15:55:59.477Z,10.57
2019-03-23T15:58:30.595Z,10.60
2019-03-23T16:01:01.923Z,13.87
2019-03-23T16:03:32.985Z,14.53
2019-03-23T16:06:04.204Z,10.80
2019-03-23T16:08:35.374Z,10.03
2019-03-23T16:11:06.473Z,11.97
2019-03-23T16:13:37.723Z,9.77
2019-03-23T16:16:09.203Z,30.40
2019-03-23T16:18:40.851Z,12.07
2019-03-23T16:21:12.095Z,7.90
2019-03-23T16:23:43.319Z,10.60
2019-03-23T16:26:14.389Z,11.47
2019-03-23T16:28:45.540Z,10.43
2019-03-23T16:31:16.709Z,13.67
2019-03-23T16:33:48.935Z,11.87
2019-03-23T16:36:20.207Z,9.77
2019-03-23T16:38:51.662Z,9.50
2019-03-23T16:41:22.939Z,11.17
2019-03-23T16:43:54.240Z,11.07
2019-03-23T16:46:25.774Z,9.30
2019-03-23T16:48:57.190Z,14.73
2019-03-23T16:51:28.805Z,15.47
2019-03-23T16:54:38.510Z,16.53
2019-03-23T16:57:11.034Z,17.50
2019-03-23T16:59:42.286Z,14.97
2019-03-23T17:02:13.765Z,15.40
2019-03-23T17:04:44.988Z,15.47
2019-03-23T17:07:16.216Z,16.40
2019-03-23T17:09:47.737Z,11.27
2019-03-23T17:12:19.368Z,12.30
2019-03-23T17:14:50.622Z,17.23
2019-03-23T17:17:21.996Z,15.67
2019-03-23T17:19:53.282Z,17.17
2019-03-23T17:22:24.798Z,20.73
2019-03-23T17:24:56.111Z,18.27
2019-03-23T17:27:27.576Z,15.67
2019-03-23T17:29:58.955Z,20.73
2019-03-23T17:32:30.516Z,21.27
2019-03-23T17:35:01.991Z,19.87
2019-03-23T17:37:33.402Z,17.77
2019-03-23T17:40:04.999Z,18.63
2019-03-23T17:42:36.537Z,19.70
2019-03-23T17:45:07.807Z,17.67
2019-03-23T17:47:40.267Z,18.03
2019-03-23T17:50:12.244Z,23.50
2019-03-23T17:52:43.820Z,22.90
2019-03-23T17:55:15.235Z,29.10
2019-03-23T17:57:46.651Z,31.20
2019-03-23T18:00:17.846Z,26.00
2019-03-23T18:02:49.173Z,27.20
2019-03-23T18:05:20.393Z,26.87
2019-03-23T18:07:52.971Z,29.20
2019-03-23T18:10:25.204Z,28.80
2019-03-23T18:12:56.598Z,28.67
2019-03-23T18:15:27.792Z,20.60
2019-03-23T18:17:58.998Z,25.67
2019-03-23T18:20:30.220Z,23.63
2019-03-23T18:23:01.394Z,23.33
2019-03-23T18:25:32.707Z,21.93
2019-03-23T18:28:03.698Z,26.13
2019-03-23T18:30:39.748Z,35.30
2019-03-23T18:33:11.114Z,32.83
2019-03-23T18:35:42.638Z,23.83
2019-03-23T18:38:13.685Z,30.23
2019-03-23T18:40:44.878Z,28.23
2019-03-23T18:43:26.700Z,24.77
2019-03-23T18:45:48.944Z,28.47
2019-03-23T18:48:20.089Z,24.60
2019-03-23T18:50:51.458Z,24.07
2019-03-23T18:53:24.057Z,30.50
2019-03-23T18:55:55.749Z,25.60
2019-03-23T18:58:27.043Z,27.37
2019-03-23T19:00:58.702Z,30.13
2019-03-23T19:03:30.041Z,28.83
2019-03-23T19:06:01.365Z,27.00
2019-03-23T19:08:33.778Z,29.23
2019-03-23T19:11:05.109Z,30.50
2019-03-23T19:13:38.090Z,26.93
2019-03-23T19:16:09.386Z,29.47
2019-03-23T19:18:40.748Z,29.27
2019-03-23T19:21:12.033Z,30.87
2019-03-23T19:23:43.318Z,33.40
2019-03-23T19:26:14.661Z,38.10
2019-03-23T19:28:47.987Z,30.97
2019-03-23T19:31:19.216Z,28.33
2019-03-23T19:33:50.754Z,37.03
2019-03-23T19:36:23.114Z,33.70
2019-03-23T19:38:54.487Z,33.20
2019-03-23T19:41:25.919Z,34.03
2019-03-23T19:43:57.181Z,38.17
2019-03-23T19:46:28.320Z,38.33
2019-03-23T19:48:59.673Z,34.67
2019-03-23T19:51:30.788Z,37.70
2019-03-23T19:54:02.111Z,34.07
2019-03-23T19:56:33.208Z,36.27
2019-03-23T19:59:04.440Z,37.47
2019-03-23T20:01:35.650Z,37.87
2019-03-23T20:04:06.620Z,39.07
2019-03-23T20:06:38.721Z,35.97
2019-03-23T20:09:10.412Z,35.83
2019-03-23T20:11:41.686Z,41.07
2019-03-23T20:14:12.727Z,38.57
2019-03-23T20:16:44.106Z,37.10
2019-03-23T20:19:15.182Z,38.90
2019-03-23T20:21:46.328Z,46.27
2019-03-23T20:24:17.484Z,42.63
2019-03-23T20:26:49.131Z,42.47
2019-03-23T20:29:20.807Z,38.90
2019-03-23T20:31:52.385Z,41.57
2019-03-23T20:34:23.929Z,42.00
2019-03-23T20:36:55.790Z,41.10
2019-03-23T20:39:27.205Z,41.47
2019-03-23T20:41:58.525Z,43.03
2019-03-23T20:44:29.827Z,43.53
2019-03-23T20:47:01.189Z,42.63
2019-03-23T20:49:32.590Z,41.47
2019-03-23T20:52:04.018Z,43.33
2019-03-23T20:54:35.649Z,45.83
2019-03-23T20:57:23.145Z,41.80
2019-03-23T20:59:45.330Z,45.93
2019-03-23T21:02:16.651Z,44.10
2019-03-23T21:04:47.936Z,47.30
2019-03-23T21:07:19.127Z,40.80
2019-03-23T21:09:51.155Z,42.97
2019-03-23T21:12:22.269Z,42.47
2019-03-23T21:14:53.598Z,51.17
2019-03-23T21:17:25.247Z,48.20
2019-03-23T21:20:00.160Z,47.77
2019-03-23T21:22:31.523Z,51.13
2019-03-23T21:25:02.935Z,52.07
2019-03-23T21:27:35.124Z,54.83
2019-03-23T21:30:08.503Z,55.03
2019-03-23T21:32:39.652Z,51.47
2019-03-23T21:35:11.107Z,54.83
2019-03-23T21:37:42.404Z,53.70
2019-03-23T21:40:13.894Z,50.33
2019-03-23T21:42:45.815Z,50.53
2019-03-23T21:45:17.756Z,50.83
2019-03-23T21:47:48.969Z,53.53
2019-03-23T21:50:20.369Z,51.40
2019-03-23T21:52:51.862Z,54.73
2019-03-23T21:55:23.339Z,50.97
2019-03-23T21:57:54.783Z,51.23
2019-03-23T22:00:32.079Z,57.23
2019-03-23T22:03:03.897Z,53.83
2019-03-23T22:05:35.486Z,57.80
2019-03-23T22:08:06.906Z,55.53
2019-03-23T22:10:38.083Z,55.20
2019-03-23T22:13:09.829Z,56.47
2019-03-23T22:15:41.286Z,59.30
2019-03-23T22:18:12.637Z,59.13
2019-03-23T22:20:43.879Z,64.53
2019-03-23T22:23:15.128Z,57.87
2019-03-23T22:25:46.165Z,64.70
2019-03-23T22:28:17.279Z,66.03
2019-03-23T22:30:48.422Z,64.23
2019-03-23T22:33:19.598Z,63.90
2019-03-23T22:35:50.930Z,59.80
2019-03-23T22:38:22.257Z,64.63
2019-03-23T22:40:53.415Z,67.20
2019-03-23T22:43:24.537Z,63.80
2019-03-23T22:45:55.778Z,67.47
2019-03-23T22:48:27.294Z,66.87
2019-03-23T22:50:58.397Z,66.47
2019-03-23T22:53:29.687Z,66.10
2019-03-23T22:56:00.932Z,65.70
2019-03-23T22:58:32.258Z,61.70
2019-03-23T23:01:03.547Z,65.07
2019-03-23T23:03:50.076Z,58.47
2019-03-23T23:06:21.126Z,48.80
2019-03-23T23:08:52.287Z,50.07
2019-03-23T23:11:23.809Z,43.30
2019-03-23T23:13:55.293Z,42.57
2019-03-23T23:16:26.479Z,44.87
2019-03-23T23:18:57.547Z,36.07
2019-03-23T23:21:28.623Z,51.30
2019-03-23T23:23:59.790Z,37.37
2019-03-23T23:26:30.916Z,37.63
2019-03-23T23:29:02.054Z,34.47
2019-03-23T23:31:33.357Z,32.70
2019-03-23T23:34:04.679Z,32.73
2019-03-23T23:36:35.949Z,32.33
2019-03-23T23:39:08.929Z,34.37
2019-03-23T23:41:40.443Z,35.70
2019-03-23T23:47:47.639Z,30.33
2019-03-23T23:50:18.668Z,31.23
2019-03-23T23:52:49.811Z,27.03
2019-03-23T23:55:20.814Z,31.23
2019-03-23T23:57:52.065Z,29.27
